Time;durP1;ratioP1;P1;durP2;ratioP2;P2;SDS_P1;SDS_P2;PMS_P1;PMS_P2;Temp;Humidity;BMP_temperature;BMP_pressure;BME280_temperature;BME280_humidity;BME280_pressure;Samples;Min_cycle;Max_cycle;Signal;HPM_P1;HPM_P2
2023/05/02 00:03:49;;;;;;;;;;;12.70;99.90;;;;;;8392966;28;19924;-70
2023/05/02 00:07:50;;;;;;;;;;;12.70;99.90;;;;;;8407982;28;19933;-70
2023/05/02 00:11:52;;;;;;;;;;;12.70;99.90;;;;;;8362938;28;19925;-70
2023/05/02 00:15:54;;;;;;;;;;;12.60;99.90;;;;;;8381846;28;19983;-70
2023/05/02 00:19:55;;;;;;;;;;;12.60;99.90;;;;;;8398933;28;19931;-70
2023/05/02 00:23:58;;;;;;;;;;;12.60;99.90;;;;;;8406013;28;19925;-71
2023/05/02 01:04:34;;;;;;;;;;;12.60;99.90;;;;;;8410591;28;20402;-70
2023/05/02 01:08:45;;;;;;;;;;;12.50;99.90;;;;;;8386536;28;20288;-71
2023/05/02 01:12:59;;;;;;;;;;;12.60;99.90;;;;;;8391537;28;19925;-71
2023/05/02 01:17:05;;;;;;;;;;;12.50;99.90;;;;;;8382440;28;20375;-70
2023/05/02 01:21:07;;;;;;;;;;;12.50;99.90;;;;;;8406909;28;19939;-70
2023/05/02 01:25:15;;;;;;;;;;;12.40;99.90;;;;;;8388269;28;19925;-71
2023/05/02 01:29:19;;;;;;;;;;;12.40;99.90;;;;;;8412944;28;19982;-70
2023/05/02 01:33:21;;;;;;;;;;;12.40;99.90;;;;;;8402380;28;20029;-70
2023/05/02 01:37:24;;;;;;;;;;;12.50;99.90;;;;;;8393989;28;19932;-70
2023/05/02 01:41:27;;;;;;;;;;;12.40;99.90;;;;;;8417029;28;19924;-70
2023/05/02 01:45:30;;;;;;;;;;;12.40;99.90;;;;;;8376726;28;19963;-70
2023/05/02 01:49:32;;;;;;;;;;;12.30;99.90;;;;;;8408314;28;19986;-71
2023/05/02 01:53:34;;;;;;;;;;;12.30;99.90;;;;;;8414589;28;19979;-70
2023/05/02 01:57:37;;;;;;;;;;;12.30;99.90;;;;;;8390413;28;20423;-71
2023/05/02 02:01:39;;;;;;;;;;;12.30;99.90;;;;;;8391551;28;19925;-70
2023/05/02 02:05:41;;;;;;;;;;;12.20;99.90;;;;;;8403097;28;19924;-70
2023/05/02 02:09:43;;;;;;;;;;;12.20;99.90;;;;;;8398390;28;20364;-70
2023/05/02 02:13:48;;;;;;;;;;;12.20;99.90;;;;;;8407598;28;19967;-70
2023/05/02 02:17:57;;;;;;;;;;;12.20;99.90;;;;;;8400195;28;19924;-70
2023/05/02 02:22:00;;;;;;;;;;;12.10;99.90;;;;;;8383350;28;19929;-70
2023/05/02 02:26:03;;;;;;;;;;;12.10;99.90;;;;;;8415161;28;19924;-70
2023/05/02 02:30:05;;;;;;;;;;;12.00;99.90;;;;;;8391834;28;20295;-70
2023/05/02 02:49:56;;;;;;;;;;;11.60;99.90;;;;;;8394980;28;20291;-70
2023/05/02 02:53:58;;;;;;;;;;;11.60;99.90;;;;;;8349635;28;19966;-70
2023/05/02 02:58:08;;;;;;;;;;;11.60;99.90;;;;;;8392203;28;20367;-70
2023/05/02 03:02:11;;;;;;;;;;;11.60;99.90;;;;;;8382588;28;19931;-70
2023/05/02 03:21:33;;;;;;;;;;;11.20;99.90;;;;;;8411367;28;19973;-70
2023/05/02 03:25:35;;;;;;;;;;;11.10;99.90;;;;;;8416047;28;19939;-70
2023/05/02 03:29:36;;;;;;;;;;;11.20;99.90;;;;;;8415680;28;20373;-70
2023/05/02 03:33:38;;;;;;;;;;;11.20;99.90;;;;;;8392730;28;19934;-70
2023/05/02 03:37:39;;;;;;;;;;;11.10;99.90;;;;;;8407773;28;19932;-70
2023/05/02 03:41:42;;;;;;;;;;;11.10;99.90;;;;;;8395285;28;19967;-70
2023/05/02 03:45:44;;;;;;;;;;;11.10;99.90;;;;;;8373056;28;20327;-70
2023/05/02 03:49:48;;;;;;;;;;;11.10;99.90;;;;;;8408970;28;19985;-70
2023/05/02 03:58:53;;;;;;;;;;;11.00;99.90;;;;;;8389393;28;19933;-70
2023/05/02 04:02:55;;;;;;;;;;;10.90;99.90;;;;;;8374603;28;19928;-70
2023/05/02 04:06:57;;;;;;;;;;;10.90;99.90;;;;;;8382037;28;20471;-70
2023/05/02 04:10:58;;;;;;;;;;;10.90;99.90;;;;;;8395284;28;19933;-70
2023/05/02 04:15:00;;;;;;;;;;;10.80;99.90;;;;;;8417180;28;19931;-70
2023/05/02 04:19:01;;;;;;;;;;;10.80;99.90;;;;;;8387321;28;19935;-70
2023/05/02 04:23:03;;;;;;;;;;;10.70;99.90;;;;;;8395553;28;19971;-70
2023/05/02 04:27:04;;;;;;;;;;;10.60;99.90;;;;;;8408161;28;19972;-70
2023/05/02 04:31:06;;;;;;;;;;;10.60;99.90;;;;;;8398372;28;19976;-70
2023/05/02 04:35:08;;;;;;;;;;;10.50;99.90;;;;;;8378282;28;19924;-70
2023/05/02 04:43:53;;;;;;;;;;;10.50;99.90;;;;;;8401263;28;19925;-70
2023/05/02 04:47:55;;;;;;;;;;;10.40;99.90;;;;;;8409901;28;20066;-70
2023/05/02 04:51:56;;;;;;;;;;;10.40;99.90;;;;;;8406862;28;19969;-70
2023/05/02 04:55:58;;;;;;;;;;;10.50;99.90;;;;;;8406196;28;21438;-70
2023/05/02 05:00:00;;;;;;;;;;;10.50;99.90;;;;;;8426829;28;19928;-70
2023/05/02 05:04:02;;;;;;;;;;;10.50;99.90;;;;;;8382100;28;19925;-70
2023/05/02 05:08:04;;;;;;;;;;;10.60;99.90;;;;;;8401166;28;19928;-70
2023/05/02 05:12:06;;;;;;;;;;;10.60;99.90;;;;;;8378648;28;20007;-70
2023/05/02 05:16:08;;;;;;;;;;;10.60;99.90;;;;;;8414480;28;19924;-70
2023/05/02 05:20:09;;;;;;;;;;;10.70;99.90;;;;;;8395161;28;19939;-70
2023/05/02 05:24:11;;;;;;;;;;;10.70;99.90;;;;;;8398131;28;19965;-70
2023/05/02 05:28:13;;;;;;;;;;;10.70;99.90;;;;;;8400990;28;20419;-70
2023/05/02 05:32:15;;;;;;;;;;;10.70;99.90;;;;;;8368258;28;19928;-70
2023/05/02 05:36:17;;;;;;;;;;;10.70;99.90;;;;;;8381537;28;20375;-70
2023/05/02 05:40:20;;;;;;;;;;;10.80;99.90;;;;;;8412815;28;19931;-70
2023/05/02 05:44:21;;;;;;;;;;;10.80;99.90;;;;;;8369195;28;19933;-70
2023/05/02 05:48:24;;;;;;;;;;;10.90;99.90;;;;;;8354227;28;20028;-70
2023/05/02 05:52:25;;;;;;;;;;;11.10;99.90;;;;;;8352480;28;19962;-70
2023/05/02 05:56:27;;;;;;;;;;;11.20;99.90;;;;;;8363460;28;19928;-70
2023/05/02 06:00:28;;;;;;;;;;;11.30;99.90;;;;;;8367412;28;20019;-70
2023/05/02 06:04:30;;;;;;;;;;;11.20;99.90;;;;;;8370174;28;19986;-70
2023/05/02 06:08:32;;;;;;;;;;;11.20;99.90;;;;;;8363175;28;19950;-70
2023/05/02 06:12:33;;;;;;;;;;;11.20;99.90;;;;;;8360103;28;20023;-70
2023/05/02 06:16:35;;;;;;;;;;;11.20;99.90;;;;;;8364434;28;19928;-70
2023/05/02 06:20:37;;;;;;;;;;;11.20;99.90;;;;;;8367438;28;19932;-70
2023/05/02 06:24:38;;;;;;;;;;;11.20;99.90;;;;;;8343222;28;19935;-70
2023/05/02 06:28:40;;;;;;;;;;;11.20;99.90;;;;;;8365002;28;20380;-70
2023/05/02 06:32:42;;;;;;;;;;;11.30;99.90;;;;;;8368742;28;19924;-70
2023/05/02 06:36:44;;;;;;;;;;;11.40;99.90;;;;;;8368067;28;20296;-70
2023/05/02 06:40:46;;;;;;;;;;;11.40;99.90;;;;;;8357649;28;19933;-70
2023/05/02 06:44:50;;;;;;;;;;;11.60;99.90;;;;;;8371858;28;19932;-70
2023/05/02 06:48:51;;;;;;;;;;;11.70;99.90;;;;;;8376966;28;19932;-70
2023/05/02 06:52:53;;;;;;;;;;;11.80;99.90;;;;;;8369278;28;19925;-70
2023/05/02 06:56:54;;;;;;;;;;;11.90;99.90;;;;;;8351743;28;20011;-70
2023/05/02 07:00:56;;;;;;;;;;;12.20;99.90;;;;;;8387097;28;19929;-70
2023/05/02 07:04:58;;;;;;;;;;;12.20;99.90;;;;;;8367402;28;19931;-70
2023/05/02 07:09:00;;;;;;;;;;;12.30;99.90;;;;;;8386664;28;19929;-70
2023/05/02 07:13:01;;;;;;;;;;;12.20;99.80;;;;;;8364593;28;19935;-70
2023/05/02 07:17:05;;;;;;;;;;;12.10;99.70;;;;;;8368634;28;21279;-70
2023/05/02 07:21:07;;;;;;;;;;;12.00;99.50;;;;;;8376845;28;20503;-70
2023/05/02 07:25:09;;;;;;;;;;;11.90;99.70;;;;;;8369583;28;19935;-70
2023/05/02 07:29:11;;;;;;;;;;;11.90;99.90;;;;;;8374014;28;19948;-70
2023/05/02 07:33:13;;;;;;;;;;;12.00;99.90;;;;;;8368768;28;20403;-70
2023/05/02 07:37:15;;;;;;;;;;;12.20;99.90;;;;;;8362804;28;19932;-70
2023/05/02 07:41:17;;;;;;;;;;;12.40;99.90;;;;;;8371220;28;19928;-70
2023/05/02 07:45:18;;;;;;;;;;;12.40;99.90;;;;;;8357813;28;19925;-70
2023/05/02 07:49:20;;;;;;;;;;;12.50;99.90;;;;;;8368321;28;20284;-70
2023/05/02 07:53:22;;;;;;;;;;;12.60;99.90;;;;;;8372924;28;20043;-70
2023/05/02 07:57:25;;;;;;;;;;;12.70;99.90;;;;;;8369737;28;20376;-70
2023/05/02 08:01:27;;;;;;;;;;;12.70;99.90;;;;;;8365028;28;19936;-70
2023/05/02 08:05:29;;;;;;;;;;;12.70;99.90;;;;;;8366780;28;20046;-71
2023/05/02 08:09:30;;;;;;;;;;;12.70;99.90;;;;;;8374130;28;19924;-70
2023/05/02 08:13:32;;;;;;;;;;;12.80;99.90;;;;;;8379964;28;20338;-70
2023/05/02 08:17:34;;;;;;;;;;;12.80;99.90;;;;;;8382240;28;19928;-70
2023/05/02 08:21:35;;;;;;;;;;;12.70;99.90;;;;;;8349754;28;19925;-70
2023/05/02 08:25:37;;;;;;;;;;;12.70;99.70;;;;;;8361726;28;19929;-70
2023/05/02 08:29:38;;;;;;;;;;;12.70;99.60;;;;;;8373083;28;20391;-70
2023/05/02 08:33:40;;;;;;;;;;;12.70;99.30;;;;;;8376688;28;19964;-70
2023/05/02 08:37:42;;;;;;;;;;;12.60;99.30;;;;;;8371935;28;19973;-70
2023/05/02 08:41:43;;;;;;;;;;;12.70;99.80;;;;;;8366973;28;20296;-70
2023/05/02 08:45:45;;;;;;;;;;;12.80;99.70;;;;;;8367729;28;19941;-70
2023/05/02 08:49:47;;;;;;;;;;;12.80;99.50;;;;;;8360168;28;20011;-70
2023/05/02 08:53:49;;;;;;;;;;;12.80;99.60;;;;;;8368136;28;19929;-70
2023/05/02 08:57:51;;;;;;;;;;;12.80;99.70;;;;;;8346488;28;19928;-70
2023/05/02 09:01:57;;;;;;;;;;;12.90;99.60;;;;;;8362158;28;19936;-70
2023/05/02 09:06:06;;;;;;;;;;;13.00;99.40;;;;;;8375145;28;19940;-70
2023/05/02 09:10:08;;;;;;;;;;;13.20;99.50;;;;;;8374473;28;19925;-70
2023/05/02 09:14:13;;;;;;;;;;;13.30;98.60;;;;;;8363137;28;20106;-70
2023/05/02 09:18:19;;;;;;;;;;;13.60;98.90;;;;;;8346666;28;19943;-70
2023/05/02 09:22:22;;;;;;;;;;;13.70;98.30;;;;;;8372477;28;19975;-70
2023/05/02 09:26:25;;;;;;;;;;;13.80;98.50;;;;;;8369105;28;19964;-70
2023/05/02 09:30:28;;;;;;;;;;;13.90;98.70;;;;;;8370763;28;20322;-70
2023/05/02 09:34:38;;;;;;;;;;;14.00;98.50;;;;;;8365919;28;19924;-70
2023/05/02 09:38:40;;;;;;;;;;;14.10;98.40;;;;;;8370774;28;19932;-70
2023/05/02 09:42:41;;;;;;;;;;;14.10;97.50;;;;;;8369281;28;20618;-70
2023/05/02 09:46:47;;;;;;;;;;;14.10;97.10;;;;;;8387142;28;19928;-71
2023/05/02 09:50:49;;;;;;;;;;;14.20;97.60;;;;;;8371355;28;20379;-70
2023/05/02 09:54:51;;;;;;;;;;;14.30;97.70;;;;;;8365728;28;19931;-70
2023/05/02 09:59:13;;;;;;;;;;;14.40;96.90;;;;;;8365756;28;19932;-70
2023/05/02 10:03:16;;;;;;;;;;;14.70;98.40;;;;;;8369560;28;19956;-70
2023/05/02 10:07:18;;;;;;;;;;;14.80;96.40;;;;;;8363524;28;19939;-70
2023/05/02 10:11:20;;;;;;;;;;;14.90;98.20;;;;;;8378294;28;19931;-70
2023/05/02 10:15:23;;;;;;;;;;;15.30;96.50;;;;;;8365819;28;19939;-70
2023/05/02 10:19:40;;;;;;;;;;;15.60;96.50;;;;;;8379978;28;19925;-70
2023/05/02 10:23:45;;;;;;;;;;;15.70;96.20;;;;;;8363226;28;20403;-70
2023/05/02 10:27:47;;;;;;;;;;;16.00;96.20;;;;;;8364401;28;19933;-70
2023/05/02 10:31:49;;;;;;;;;;;16.10;97.70;;;;;;8367079;28;19940;-70
2023/05/02 10:35:51;;;;;;;;;;;16.30;97.00;;;;;;8367734;28;19982;-70
2023/05/02 10:39:52;;;;;;;;;;;16.50;93.30;;;;;;8364615;28;19986;-70
2023/05/02 10:43:54;;;;;;;;;;;16.20;95.20;;;;;;8360499;28;19929;-70
2023/05/02 10:48:15;;;;;;;;;;;16.50;96.10;;;;;;8360060;28;20275;-70
2023/05/02 10:52:33;;;;;;;;;;;17.10;95.70;;;;;;8360678;28;19925;-70
2023/05/02 10:56:34;;;;;;;;;;;17.20;95.60;;;;;;8360693;28;19929;-70
2023/05/02 11:00:36;;;;;;;;;;;17.20;95.20;;;;;;8373930;28;19928;-70
2023/05/02 11:04:58;;;;;;;;;;;17.50;99.90;;;;;;8364361;28;19975;-70
2023/05/02 11:09:17;;;;;;;;;;;17.80;99.90;;;;;;8352369;28;19924;-71
2023/05/02 11:13:39;;;;;;;;;;;17.80;94.40;;;;;;8341773;28;20011;-70
2023/05/02 11:18:06;;;;;;;;;;;18.00;98.00;;;;;;8357456;28;19928;-70
2023/05/02 11:22:17;;;;;;;;;;;18.00;98.90;;;;;;8354916;28;20014;-70
2023/05/02 11:26:21;;;;;;;;;;;17.90;99.90;;;;;;8371128;28;19978;-70
2023/05/02 11:30:40;;;;;;;;;;;18.20;97.10;;;;;;8374763;28;19975;-70
2023/05/02 11:34:43;;;;;;;;;;;18.40;99.10;;;;;;8375431;28;19959;-70
2023/05/02 11:38:44;;;;;;;;;;;19.00;96.90;;;;;;8389005;28;20295;-70
2023/05/02 11:42:46;;;;;;;;;;;19.30;98.10;;;;;;8364050;28;20707;-70
2023/05/02 11:46:48;;;;;;;;;;;19.40;99.50;;;;;;8365907;28;19933;-71
2023/05/02 11:50:54;;;;;;;;;;;19.30;99.90;;;;;;8367354;28;19928;-70
2023/05/02 11:54:56;;;;;;;;;;;19.20;98.00;;;;;;8349675;28;20663;-70
2023/05/02 11:59:02;;;;;;;;;;;19.40;98.80;;;;;;8376688;28;19925;-70
2023/05/02 12:03:05;;;;;;;;;;;19.70;94.50;;;;;;8370344;28;20407;-70
2023/05/02 12:07:06;;;;;;;;;;;19.90;99.10;;;;;;8352302;28;19947;-70
2023/05/02 12:11:17;;;;;;;;;;;20.10;99.90;;;;;;8371654;28;19928;-70
2023/05/02 12:15:18;;;;;;;;;;;20.40;99.90;;;;;;8373722;28;20339;-70
2023/05/02 12:19:20;;;;;;;;;;;20.20;99.90;;;;;;8363916;28;20019;-70
2023/05/02 12:23:23;;;;;;;;;;;20.20;99.90;;;;;;8370481;28;20551;-70
2023/05/02 12:27:26;;;;;;;;;;;20.00;99.90;;;;;;8366048;28;19928;-70
2023/05/02 12:31:29;;;;;;;;;;;19.70;98.70;;;;;;8362603;28;19930;-70
2023/05/02 12:35:32;;;;;;;;;;;19.60;99.10;;;;;;8363587;28;19977;-70
2023/05/02 12:39:34;;;;;;;;;;;19.50;98.30;;;;;;8371059;28;20368;-70
2023/05/02 12:43:48;;;;;;;;;;;19.50;92.80;;;;;;8372081;28;19931;-70
2023/05/02 12:47:50;;;;;;;;;;;19.50;97.80;;;;;;8360476;28;19925;-70
2023/05/02 12:51:52;;;;;;;;;;;19.60;94.30;;;;;;8373061;28;20272;-71
2023/05/02 12:56:01;;;;;;;;;;;19.60;92.50;;;;;;8368556;28;20415;-71
2023/05/02 13:00:03;;;;;;;;;;;20.10;97.60;;;;;;8370994;28;19925;-70
2023/05/02 13:04:05;;;;;;;;;;;20.60;96.90;;;;;;8361863;28;19929;-70
2023/05/02 13:08:07;;;;;;;;;;;20.60;96.00;;;;;;8344235;28;19936;-70
2023/05/02 13:12:08;;;;;;;;;;;20.60;93.60;;;;;;8361518;28;20035;-70
2023/05/02 13:16:10;;;;;;;;;;;20.50;97.10;;;;;;8361384;28;20257;-70
2023/05/02 13:20:12;;;;;;;;;;;20.30;93.00;;;;;;8375507;28;19978;-70
2023/05/02 13:24:14;;;;;;;;;;;20.10;94.00;;;;;;8360210;28;20300;-70
2023/05/02 13:28:15;;;;;;;;;;;20.00;92.90;;;;;;8361231;28;19951;-71
2023/05/02 13:32:17;;;;;;;;;;;20.00;93.10;;;;;;8366621;28;19932;-71
2023/05/02 13:36:19;;;;;;;;;;;19.70;90.00;;;;;;8362935;28;20024;-72
2023/05/02 13:40:21;;;;;;;;;;;19.70;90.00;;;;;;8385605;28;20434;-71
2023/05/02 13:44:22;;;;;;;;;;;19.90;88.10;;;;;;8348340;28;19925;-70
2023/05/02 13:48:24;;;;;;;;;;;20.60;90.70;;;;;;8351215;28;19931;-71
2023/05/02 13:52:26;;;;;;;;;;;21.40;88.50;;;;;;8361397;28;20294;-71
2023/05/02 13:56:27;;;;;;;;;;;21.90;90.50;;;;;;8365292;28;19931;-71
2023/05/02 14:00:29;;;;;;;;;;;22.50;92.60;;;;;;8367581;28;20364;-71
2023/05/02 14:04:31;;;;;;;;;;;23.30;95.40;;;;;;8357617;28;19932;-71
2023/05/02 14:08:32;;;;;;;;;;;23.40;94.30;;;;;;8362677;28;19924;-71
2023/05/02 14:12:34;;;;;;;;;;;23.60;96.40;;;;;;8373084;28;19928;-71
2023/05/02 14:16:35;;;;;;;;;;;23.90;87.80;;;;;;8392281;28;19931;-71
2023/05/02 14:20:37;;;;;;;;;;;24.30;92.10;;;;;;8390065;28;19924;-71
2023/05/02 14:24:39;;;;;;;;;;;24.00;92.80;;;;;;8395547;28;19928;-71
2023/05/02 14:28:41;;;;;;;;;;;23.40;90.60;;;;;;8375753;28;20364;-71
2023/05/02 14:32:42;;;;;;;;;;;23.20;93.40;;;;;;8393170;28;19924;-71
2023/05/02 14:36:44;;;;;;;;;;;23.00;88.50;;;;;;8397308;28;19932;-71
2023/05/02 14:40:46;;;;;;;;;;;22.90;89.30;;;;;;8396686;28;19924;-71
2023/05/02 14:44:47;;;;;;;;;;;23.00;91.00;;;;;;8394188;28;20019;-71
2023/05/02 14:48:49;;;;;;;;;;;23.70;91.00;;;;;;8401451;28;20015;-71
2023/05/02 14:52:51;;;;;;;;;;;24.00;89.50;;;;;;8392075;28;20664;-71
2023/05/02 14:56:52;;;;;;;;;;;24.40;90.90;;;;;;8390828;28;19935;-71
2023/05/02 15:00:54;;;;;;;;;;;24.70;87.60;;;;;;8396853;28;19929;-71
2023/05/02 15:04:56;;;;;;;;;;;24.90;91.70;;;;;;8399465;28;19947;-71
2023/05/02 15:08:57;;;;;;;;;;;25.20;92.20;;;;;;8395343;28;19967;-71
2023/05/02 15:12:59;;;;;;;;;;;25.40;91.00;;;;;;8401160;28;19942;-71
2023/05/02 15:17:01;;;;;;;;;;;25.30;94.80;;;;;;8396332;28;20004;-71
2023/05/02 15:21:02;;;;;;;;;;;25.30;87.00;;;;;;8401199;28;20380;-71
2023/05/02 15:25:04;;;;;;;;;;;25.70;92.90;;;;;;8397402;28;20291;-71
2023/05/02 15:29:06;;;;;;;;;;;25.90;85.70;;;;;;8398210;28;20027;-71
2023/05/02 15:33:08;;;;;;;;;;;26.20;83.40;;;;;;8390361;28;19931;-71
2023/05/02 15:37:10;;;;;;;;;;;26.40;91.10;;;;;;8396106;28;19928;-71
2023/05/02 15:41:11;;;;;;;;;;;26.80;92.20;;;;;;8395528;28;22864;-70
2023/05/02 15:45:13;;;;;;;;;;;27.10;81.10;;;;;;8414039;27;20290;-71
2023/05/02 15:49:15;;;;;;;;;;;27.50;79.70;;;;;;8393049;28;20330;-71
2023/05/02 15:53:17;;;;;;;;;;;27.90;79.20;;;;;;8396007;28;19971;-71
2023/05/02 15:57:18;;;;;;;;;;;28.30;91.00;;;;;;8392907;28;20027;-71
2023/05/02 16:01:22;;;;;;;;;;;28.70;89.80;;;;;;8393877;28;19932;-71
2023/05/02 16:05:24;;;;;;;;;;;29.00;83.00;;;;;;8391551;28;19932;-71
2023/05/02 16:09:27;;;;;;;;;;;29.20;92.60;;;;;;8393060;28;19928;-71
2023/05/02 16:13:28;;;;;;;;;;;29.50;90.10;;;;;;8379492;28;19935;-71
2023/05/02 16:17:30;;;;;;;;;;;29.60;85.40;;;;;;8388483;28;19932;-71
2023/05/02 16:21:31;;;;;;;;;;;29.70;94.40;;;;;;8390756;28;19985;-71
2023/05/02 16:25:33;;;;;;;;;;;29.80;67.60;;;;;;8409874;27;19944;-71
2023/05/02 16:29:35;;;;;;;;;;;29.80;83.00;;;;;;8372916;28;20386;-71
2023/05/02 16:33:38;;;;;;;;;;;29.90;83.50;;;;;;8391454;28;19934;-71
2023/05/02 16:37:40;;;;;;;;;;;29.80;92.00;;;;;;8393490;28;19932;-71
2023/05/02 16:41:43;;;;;;;;;;;29.80;91.70;;;;;;8390973;28;19925;-71
2023/05/02 16:45:45;;;;;;;;;;;29.70;84.60;;;;;;8399416;28;19939;-71
2023/05/02 16:49:51;;;;;;;;;;;29.50;65.90;;;;;;8396929;28;20593;-71
2023/05/02 16:53:52;;;;;;;;;;;29.40;89.40;;;;;;8392714;28;20325;-71
2023/05/02 16:57:54;;;;;;;;;;;29.20;73.80;;;;;;8372924;28;20291;-71
2023/05/02 17:01:56;;;;;;;;;;;29.20;81.40;;;;;;8392395;28;19966;-72
2023/05/02 17:05:59;;;;;;;;;;;29.10;90.40;;;;;;8392204;28;19952;-71
2023/05/02 17:10:02;;;;;;;;;;;29.10;83.60;;;;;;8393202;28;20410;-73
2023/05/02 17:14:05;;;;;;;;;;;28.60;77.80;;;;;;8397012;28;20100;-71
2023/05/02 17:18:06;;;;;;;;;;;28.00;71.80;;;;;;8384851;28;19925;-71
2023/05/02 17:22:08;;;;;;;;;;;27.70;68.40;;;;;;8384341;28;20033;-71
2023/05/02 17:26:13;;;;;;;;;;;27.10;71.30;;;;;;8396126;28;20011;-71
2023/05/02 17:30:14;;;;;;;;;;;26.90;61.00;;;;;;8393915;28;19925;-71
2023/05/02 17:34:16;;;;;;;;;;;26.60;62.10;;;;;;8390958;28;19982;-71
2023/05/02 17:38:18;;;;;;;;;;;26.40;58.90;;;;;;8389647;28;19940;-71
2023/05/02 17:42:19;;;;;;;;;;;26.10;62.20;;;;;;8396013;28;19932;-71
2023/05/02 17:46:21;;;;;;;;;;;25.90;63.80;;;;;;8391659;28;20313;-71
2023/05/02 17:50:23;;;;;;;;;;;25.50;62.80;;;;;;8392221;28;19931;-71
2023/05/02 17:54:24;;;;;;;;;;;24.80;61.20;;;;;;8385048;28;20327;-71
2023/05/02 17:58:34;;;;;;;;;;;24.10;59.80;;;;;;8385911;28;19928;-71
2023/05/02 18:02:36;;;;;;;;;;;23.10;62.30;;;;;;8387505;28;19924;-71
2023/05/02 18:06:38;;;;;;;;;;;22.20;56.80;;;;;;8387735;28;20380;-71
2023/05/02 18:10:40;;;;;;;;;;;21.40;59.90;;;;;;8394725;28;20400;-71
2023/05/02 18:14:42;;;;;;;;;;;20.70;61.50;;;;;;8396401;28;19924;-71
2023/05/02 18:18:44;;;;;;;;;;;20.10;58.70;;;;;;8392053;28;19935;-70
2023/05/02 18:22:45;;;;;;;;;;;19.80;59.50;;;;;;8389904;28;20038;-72
2023/05/02 18:26:47;;;;;;;;;;;19.60;57.90;;;;;;8387096;28;19932;-71
2023/05/02 18:30:49;;;;;;;;;;;19.40;60.30;;;;;;8398213;28;19932;-71
2023/05/02 18:34:50;;;;;;;;;;;19.20;57.20;;;;;;8393646;28;19931;-71
2023/05/02 18:38:52;;;;;;;;;;;18.90;57.20;;;;;;8409197;28;20427;-71
2023/05/02 18:42:54;;;;;;;;;;;18.70;57.70;;;;;;8405558;28;20328;-71
2023/05/02 18:46:56;;;;;;;;;;;18.40;57.50;;;;;;8386179;28;20358;-71
2023/05/02 18:50:58;;;;;;;;;;;18.10;57.20;;;;;;8400109;28;19929;-71
2023/05/02 18:55:03;;;;;;;;;;;17.80;57.10;;;;;;8402113;28;19975;-71
2023/05/02 18:59:05;;;;;;;;;;;17.50;57.50;;;;;;8401125;28;20427;-71
2023/05/02 19:03:07;;;;;;;;;;;17.20;57.70;;;;;;8403214;28;20388;-71
2023/05/02 19:07:08;;;;;;;;;;;17.00;58.00;;;;;;8398103;28;19939;-70
2023/05/02 19:11:10;;;;;;;;;;;16.80;58.10;;;;;;8386339;28;19934;-70
2023/05/02 19:15:12;;;;;;;;;;;16.70;58.50;;;;;;8402164;28;20399;-70
2023/05/02 19:19:14;;;;;;;;;;;16.60;58.30;;;;;;8386934;28;19931;-70
2023/05/02 19:23:18;;;;;;;;;;;16.40;58.40;;;;;;8402914;28;19932;-70
2023/05/02 19:27:21;;;;;;;;;;;16.30;58.30;;;;;;8393052;28;19928;-71
2023/05/02 19:31:22;;;;;;;;;;;16.10;58.00;;;;;;8402926;28;20290;-70
2023/05/02 19:35:24;;;;;;;;;;;15.90;58.40;;;;;;8383959;28;20001;-71
2023/05/02 19:39:27;;;;;;;;;;;15.80;58.70;;;;;;8398849;28;20027;-70
2023/05/02 19:43:28;;;;;;;;;;;15.60;58.70;;;;;;8397004;28;19967;-71
2023/05/02 19:47:31;;;;;;;;;;;15.40;58.60;;;;;;8377479;28;19939;-71
2023/05/02 19:51:34;;;;;;;;;;;15.30;59.00;;;;;;8392040;28;20418;-70
2023/05/02 19:55:35;;;;;;;;;;;15.20;59.40;;;;;;8376121;28;20368;-70
2023/05/02 19:59:37;;;;;;;;;;;15.10;59.60;;;;;;8393613;28;19924;-70
2023/05/02 20:03:38;;;;;;;;;;;14.90;59.50;;;;;;8394079;28;19975;-70
2023/05/02 20:07:40;;;;;;;;;;;14.90;59.10;;;;;;8400794;28;19978;-70
2023/05/02 20:11:42;;;;;;;;;;;14.70;59.40;;;;;;8393914;28;19964;-70
2023/05/02 20:15:44;;;;;;;;;;;14.60;59.00;;;;;;8390612;28;19928;-70
2023/05/02 20:19:45;;;;;;;;;;;14.60;59.30;;;;;;8394594;28;20550;-71
2023/05/02 20:23:47;;;;;;;;;;;14.50;58.50;;;;;;8393140;28;19932;-71
2023/05/02 20:27:49;;;;;;;;;;;14.40;58.80;;;;;;8393361;28;20958;-70
2023/05/02 20:31:50;;;;;;;;;;;14.30;58.30;;;;;;8390967;28;19942;-70
2023/05/02 20:35:54;;;;;;;;;;;14.20;58.10;;;;;;8394435;28;19928;-71
2023/05/02 20:39:55;;;;;;;;;;;14.10;58.80;;;;;;8392952;28;20364;-70
2023/05/02 20:43:58;;;;;;;;;;;14.00;58.00;;;;;;8397032;28;19925;-70
2023/05/02 20:48:00;;;;;;;;;;;13.90;57.90;;;;;;8394604;28;19959;-70
2023/05/02 20:52:02;;;;;;;;;;;13.80;58.40;;;;;;8391112;28;19924;-71
2023/05/02 20:56:04;;;;;;;;;;;13.70;58.20;;;;;;8393643;28;19924;-70
2023/05/02 21:00:07;;;;;;;;;;;13.60;57.60;;;;;;8374793;28;19925;-70
2023/05/02 21:04:09;;;;;;;;;;;13.50;58.70;;;;;;8404623;28;20302;-70
2023/05/02 21:08:11;;;;;;;;;;;13.40;58.00;;;;;;8427641;28;19974;-70
2023/05/02 21:12:12;;;;;;;;;;;13.20;57.80;;;;;;8421284;28;20375;-70
2023/05/02 21:16:18;;;;;;;;;;;13.10;58.10;;;;;;8415470;28;19924;-70
2023/05/02 21:20:20;;;;;;;;;;;12.90;57.40;;;;;;8414323;28;19925;-71
2023/05/02 21:24:21;;;;;;;;;;;12.70;58.00;;;;;;8412749;28;20349;-70
2023/05/02 21:28:23;;;;;;;;;;;12.50;57.60;;;;;;8419545;28;19935;-70
2023/05/02 21:32:25;;;;;;;;;;;12.30;58.70;;;;;;8417888;28;19972;-70
2023/05/02 21:36:27;;;;;;;;;;;12.10;58.10;;;;;;8419188;28;19935;-70
2023/05/02 21:40:30;;;;;;;;;;;12.00;56.30;;;;;;8403888;28;19947;-70
2023/05/02 21:44:32;;;;;;;;;;;11.90;55.90;;;;;;8414751;28;19931;-70
2023/05/02 21:48:33;;;;;;;;;;;11.80;54.90;;;;;;8393962;28;19925;-70
2023/05/02 21:52:35;;;;;;;;;;;11.70;54.40;;;;;;8406434;28;20320;-70
2023/05/02 21:56:37;;;;;;;;;;;11.60;54.40;;;;;;8402323;28;19935;-70
2023/05/02 22:00:39;;;;;;;;;;;11.50;54.20;;;;;;8415415;28;20011;-70
2023/05/02 22:04:46;;;;;;;;;;;11.50;54.20;;;;;;8417047;28;20826;-70
2023/05/02 22:19:14;;;;;;;;;;;11.00;53.70;;;;;;8414099;28;19973;-70
2023/05/02 22:23:16;;;;;;;;;;;10.80;53.80;;;;;;8398042;28;20006;-70
2023/05/02 22:27:17;;;;;;;;;;;10.80;54.10;;;;;;8416805;28;19970;-70
2023/05/02 22:31:19;;;;;;;;;;;10.70;54.20;;;;;;8401136;28;19982;-70
2023/05/02 22:35:21;;;;;;;;;;;10.70;54.40;;;;;;8404488;28;20333;-70
2023/05/02 22:39:23;;;;;;;;;;;10.60;54.50;;;;;;8412747;28;19928;-70
2023/05/02 22:43:24;;;;;;;;;;;10.50;54.80;;;;;;8424251;28;19924;-70
2023/05/02 22:47:27;;;;;;;;;;;10.40;55.00;;;;;;8413980;28;19936;-70
2023/05/02 22:51:29;;;;;;;;;;;10.30;55.10;;;;;;8427935;28;20299;-70
2023/05/02 22:55:31;;;;;;;;;;;10.30;55.40;;;;;;8423372;28;19967;-70
2023/05/02 22:59:32;;;;;;;;;;;10.20;55.50;;;;;;8413768;28;19924;-70
2023/05/02 23:03:34;;;;;;;;;;;10.10;55.70;;;;;;8412442;28;20018;-70
2023/05/02 23:07:36;;;;;;;;;;;10.00;55.90;;;;;;8410254;28;20022;-70
2023/05/02 23:11:38;;;;;;;;;;;9.90;57.10;;;;;;8431052;28;19934;-70
2023/05/02 23:15:40;;;;;;;;;;;9.80;57.60;;;;;;8421135;28;20019;-69
2023/05/02 23:19:41;;;;;;;;;;;9.70;57.60;;;;;;8411175;28;20368;-70
2023/05/02 23:23:43;;;;;;;;;;;9.60;57.90;;;;;;8442523;27;19924;-70
2023/05/02 23:27:45;;;;;;;;;;;9.50;58.10;;;;;;8424852;28;20055;-69
2023/05/02 23:31:51;;;;;;;;;;;9.40;58.30;;;;;;8411454;28;20394;-70
2023/05/02 23:35:52;;;;;;;;;;;9.30;58.40;;;;;;8412909;28;19989;-69
2023/05/02 23:39:56;;;;;;;;;;;9.20;58.50;;;;;;8411470;28;19946;-69
2023/05/02 23:43:58;;;;;;;;;;;9.20;58.80;;;;;;8422887;28;19950;-70
2023/05/02 23:47:59;;;;;;;;;;;9.10;58.90;;;;;;8403760;28;19932;-69
2023/05/02 23:52:01;;;;;;;;;;;9.10;59.10;;;;;;8396785;28;19936;-69
2023/05/02 23:56:03;;;;;;;;;;;9.00;59.00;;;;;;8388760;28;19925;-69
